createdAt,value
2018-07-09T00:02:19.350Z,1.70
2018-07-09T00:07:24.238Z,1.80
2018-07-09T00:12:28.224Z,1.77
2018-07-09T00:17:31.685Z,1.67
2018-07-09T00:22:35.450Z,1.90
2018-07-09T00:27:38.973Z,1.70
2018-07-09T00:32:42.518Z,1.80
2018-07-09T00:37:47.422Z,1.82
2018-07-09T00:42:51.835Z,1.55
2018-07-09T00:47:55.694Z,1.70
2018-07-09T00:52:59.132Z,1.60
2018-07-09T00:58:02.622Z,1.80
2018-07-09T01:03:06.220Z,1.90
2018-07-09T01:08:14.320Z,1.70
2018-07-09T01:13:19.966Z,1.90
2018-07-09T01:18:24.613Z,1.60
2018-07-09T01:23:31.971Z,1.70
2018-07-09T01:28:37.596Z,1.60
2018-07-09T01:33:43.312Z,1.52
2018-07-09T01:38:47.435Z,1.70
2018-07-09T01:43:51.006Z,1.75
2018-07-09T01:48:54.526Z,1.90
2018-07-09T01:54:01.102Z,1.60
2018-07-09T01:59:05.674Z,1.60
2018-07-09T02:04:09.554Z,2.00
2018-07-09T02:09:15.982Z,1.70
2018-07-09T02:14:21.592Z,1.98
2018-07-09T02:19:26.064Z,1.97
2018-07-09T02:24:35.270Z,1.95
2018-07-09T02:29:39.510Z,2.02
2018-07-09T02:34:44.041Z,1.70
2018-07-09T02:39:51.012Z,2.00
2018-07-09T02:44:54.631Z,2.20
2018-07-09T02:49:58.233Z,1.90
2018-07-09T02:55:01.829Z,1.90
2018-07-09T03:00:05.279Z,1.80
2018-07-09T03:05:08.874Z,2.10
2018-07-09T03:10:12.313Z,1.95
2018-07-09T03:15:15.881Z,1.85
2018-07-09T03:20:19.421Z,2.00
2018-07-09T03:25:22.535Z,2.00
2018-07-09T03:30:26.412Z,2.10
2018-07-09T03:35:31.002Z,2.20
2018-07-09T03:40:34.941Z,2.00
2018-07-09T03:45:38.439Z,2.10
2018-07-09T03:50:42.755Z,2.00
2018-07-09T03:55:46.178Z,2.08
2018-07-09T04:00:49.672Z,2.10
2018-07-09T04:05:54.149Z,2.50
2018-07-09T04:10:57.680Z,2.20
2018-07-09T04:16:01.446Z,2.50
2018-07-09T04:21:04.885Z,2.20
2018-07-09T04:26:13.619Z,2.58
2018-07-09T04:31:18.045Z,2.30
2018-07-09T04:36:22.108Z,2.30
2018-07-09T04:41:26.421Z,2.30
2018-07-09T04:46:30.079Z,2.30
2018-07-09T04:51:33.567Z,2.20
2018-07-09T04:56:42.567Z,2.30
2018-07-09T05:01:46.196Z,2.10
2018-07-09T05:06:49.680Z,2.20
2018-07-09T05:11:53.561Z,2.10
2018-07-09T05:16:57.079Z,2.33
2018-07-09T05:22:00.500Z,2.47
2018-07-09T05:27:06.197Z,2.40
2018-07-09T05:32:11.758Z,2.20
2018-07-09T05:37:15.232Z,2.50
2018-07-09T05:42:18.724Z,2.40
2018-07-09T05:47:22.213Z,2.40
2018-07-09T05:52:25.789Z,2.30
2018-07-09T05:57:32.302Z,2.40
2018-07-09T06:02:35.731Z,2.30
2018-07-09T06:07:40.078Z,2.30
2018-07-09T06:12:43.771Z,2.30
2018-07-09T06:17:47.211Z,2.30
2018-07-09T06:22:51.600Z,2.50
2018-07-09T06:27:55.259Z,2.30
2018-07-09T06:33:05.759Z,2.00
2018-07-09T06:38:09.323Z,2.27
2018-07-09T06:43:13.479Z,1.95
2018-07-09T06:48:23.572Z,2.10
2018-07-09T06:53:27.141Z,2.30
2018-07-09T06:58:32.024Z,2.37
2018-07-09T07:03:41.912Z,2.10
2018-07-09T07:08:46.396Z,2.25
2018-07-09T07:13:50.109Z,2.87
2018-07-09T07:18:53.743Z,2.10
2018-07-09T07:24:00.478Z,2.20
2018-07-09T07:29:05.569Z,2.20
2018-07-09T07:34:10.040Z,2.00
2018-07-09T07:39:13.724Z,2.10
2018-07-09T07:44:17.487Z,2.20
2018-07-09T07:49:23.601Z,2.20
2018-07-09T08:00:08.979Z,2.10
2018-07-09T08:05:17.206Z,1.90
2018-07-09T08:10:24.171Z,1.90
2018-07-09T08:15:27.691Z,1.95
2018-07-09T08:20:30.927Z,2.20
2018-07-09T08:25:34.678Z,2.10
2018-07-09T08:30:37.905Z,2.12
2018-07-09T08:35:43.490Z,2.45
2018-07-09T08:40:46.995Z,2.10
2018-07-09T08:45:50.577Z,1.80
2018-07-09T08:50:56.482Z,2.17
2018-07-09T08:56:00.148Z,2.00
2018-07-09T09:01:03.667Z,2.10
2018-07-09T09:06:07.157Z,2.20
2018-07-09T09:11:10.614Z,2.52
2018-07-09T09:16:14.230Z,2.40
2018-07-09T09:26:55.865Z,2.50
2018-07-09T09:37:43.943Z,2.20
2018-07-09T09:42:50.308Z,2.20
2018-07-09T09:47:54.895Z,2.22
2018-07-09T09:52:59.355Z,2.08
2018-07-09T09:58:04.685Z,2.20
2018-07-09T10:03:08.270Z,2.22
2018-07-09T10:08:12.940Z,2.70
2018-07-09T10:13:22.059Z,2.30
2018-07-09T10:18:25.971Z,2.20
2018-07-09T10:23:29.584Z,2.37
2018-07-09T10:28:33.801Z,2.20
2018-07-09T10:33:37.352Z,2.50
2018-07-09T10:38:40.970Z,2.37
2018-07-09T10:43:45.436Z,2.30
2018-07-09T10:48:50.373Z,2.20
2018-07-09T10:53:57.926Z,2.20
2018-07-09T10:59:01.917Z,2.30
2018-07-09T11:04:07.518Z,2.20
2018-07-09T11:09:11.302Z,2.00
2018-07-09T11:14:20.569Z,2.00
2018-07-09T11:19:33.910Z,1.90
2018-07-09T11:24:43.262Z,1.60
2018-07-09T11:29:50.884Z,1.77
2018-07-09T11:34:55.148Z,1.27
2018-07-09T11:40:24.996Z,1.30
2018-07-09T11:45:37.578Z,1.30
2018-07-09T11:50:54.665Z,1.40
2018-07-09T11:56:02.249Z,1.50
2018-07-09T12:01:05.759Z,1.20
2018-07-09T12:06:12.769Z,1.35
2018-07-09T12:11:20.288Z,1.10
2018-07-09T12:16:23.786Z,1.60
2018-07-09T12:21:27.782Z,1.50
2018-07-09T12:26:31.447Z,1.40
2018-07-09T12:31:36.911Z,1.30
2018-07-09T12:36:42.439Z,1.60
2018-07-09T12:41:46.292Z,1.70
2018-07-09T12:46:52.906Z,1.55
2018-07-09T12:51:57.039Z,1.70
2018-07-09T12:57:00.512Z,1.50
2018-07-09T13:02:04.084Z,1.60
2018-07-09T13:07:07.782Z,1.70
2018-07-09T13:12:12.400Z,1.60
2018-07-09T13:17:16.045Z,1.60
2018-07-09T13:22:22.783Z,1.50
2018-07-09T13:27:26.210Z,1.40
2018-07-09T13:32:30.164Z,1.40
2018-07-09T13:37:33.710Z,1.57
2018-07-09T13:42:37.825Z,1.50
2018-07-09T13:47:41.824Z,1.60
2018-07-09T13:52:48.651Z,1.50
2018-07-09T13:57:52.069Z,1.30
2018-07-09T14:02:55.515Z,1.35
2018-07-09T14:08:02.379Z,1.60
2018-07-09T14:13:05.902Z,1.52
2018-07-09T14:18:09.542Z,1.60
2018-07-09T14:23:17.282Z,1.50
2018-07-09T14:28:20.805Z,1.60
2018-07-09T14:33:24.314Z,1.80
2018-07-09T14:38:27.770Z,1.80
2018-07-09T14:43:32.079Z,1.55
2018-07-09T14:54:13.983Z,2.10
2018-07-09T14:59:17.366Z,1.80
2018-07-09T15:04:20.866Z,2.00
2018-07-09T15:20:45.321Z,1.80
2018-07-09T15:25:54.862Z,1.75
2018-07-09T15:30:58.367Z,1.80
2018-07-09T15:36:02.485Z,1.70
2018-07-09T15:41:06.009Z,1.53
2018-07-09T15:46:10.321Z,1.40
2018-07-09T15:51:17.558Z,1.60
2018-07-09T15:56:26.160Z,1.70
2018-07-09T16:01:30.151Z,1.70
2018-07-09T16:06:37.529Z,1.50
2018-07-09T16:11:44.018Z,1.30
2018-07-09T16:16:47.406Z,1.27
2018-07-09T16:21:50.795Z,1.50
2018-07-09T16:26:54.360Z,1.40
2018-07-09T16:31:58.898Z,1.50
2018-07-09T16:37:02.292Z,1.20
2018-07-09T16:42:25.739Z,1.20
2018-07-09T16:47:29.751Z,1.30
2018-07-09T16:52:43.988Z,1.20
2018-07-09T16:58:10.078Z,1.42
2018-07-09T17:03:27.941Z,1.50
2018-07-09T17:08:33.112Z,1.30
2018-07-09T17:19:16.769Z,1.40
2018-07-09T17:24:22.305Z,1.30
2018-07-09T17:29:26.138Z,1.30
2018-07-09T17:34:33.877Z,1.30
2018-07-09T17:39:37.485Z,1.70
2018-07-09T17:44:41.133Z,1.70
2018-07-09T17:49:44.630Z,1.62
2018-07-09T17:54:48.134Z,1.42
2018-07-09T17:59:57.309Z,1.80
2018-07-09T18:05:00.800Z,1.87
2018-07-09T18:10:04.426Z,1.73
2018-07-09T18:15:07.970Z,1.77
2018-07-09T18:20:11.503Z,1.90
2018-07-09T18:25:15.266Z,1.90
2018-07-09T18:30:20.774Z,1.80
2018-07-09T18:35:28.831Z,2.08
2018-07-09T18:40:32.986Z,1.70
2018-07-09T18:45:38.672Z,1.70
2018-07-09T18:50:47.605Z,1.82
2018-07-09T19:01:10.339Z,1.70
2018-07-09T19:07:20.283Z,1.50
2018-07-09T19:12:27.011Z,1.70
2018-07-09T19:18:13.198Z,1.70
2018-07-09T19:23:15.583Z,1.70
2018-07-09T19:28:17.937Z,1.65
2018-07-09T19:33:24.142Z,2.10
2018-07-09T19:38:28.035Z,1.80
2018-07-09T19:43:32.643Z,1.80
2018-07-09T19:48:38.022Z,1.50
2018-07-09T19:59:18.776Z,1.70
2018-07-09T20:09:29.616Z,1.80
2018-07-09T20:14:37.357Z,1.60
2018-07-09T20:19:39.698Z,1.60
2018-07-09T20:24:41.978Z,1.82
2018-07-09T20:29:44.332Z,1.80
2018-07-09T20:34:52.695Z,1.70
2018-07-09T20:39:59.254Z,1.80
2018-07-09T20:45:13.505Z,1.70
2018-07-09T20:50:16.715Z,1.60
2018-07-09T20:55:25.026Z,1.77
2018-07-09T21:00:30.825Z,1.57
2018-07-09T21:05:33.564Z,1.90
2018-07-09T21:10:36.038Z,1.80
2018-07-09T21:15:39.288Z,2.10
2018-07-09T21:20:42.475Z,2.10
2018-07-09T21:25:48.439Z,1.70
2018-07-09T21:30:50.735Z,1.80
2018-07-09T21:35:55.142Z,1.90
2018-07-09T21:40:59.435Z,1.90
2018-07-09T21:46:02.738Z,1.90
2018-07-09T21:51:05.082Z,1.80
2018-07-09T21:56:08.301Z,1.93
2018-07-09T22:01:12.668Z,1.85
2018-07-09T22:06:14.934Z,1.95
2018-07-09T22:11:17.265Z,1.70
2018-07-09T22:16:19.552Z,1.87
2018-07-09T22:21:21.871Z,2.10
2018-07-09T22:26:24.196Z,2.12
2018-07-09T22:31:28.003Z,2.00
2018-07-09T22:36:32.538Z,2.20
2018-07-09T22:41:36.557Z,2.30
2018-07-09T22:46:41.218Z,2.10
2018-07-09T22:51:46.299Z,2.10
2018-07-09T22:56:50.727Z,1.95
2018-07-09T23:01:56.189Z,2.10
2018-07-09T23:06:59.612Z,2.27
2018-07-09T23:17:36.208Z,2.20
2018-07-09T23:22:38.518Z,2.27
2018-07-09T23:27:44.555Z,2.50
2018-07-09T23:32:50.450Z,2.40
2018-07-09T23:37:52.798Z,2.70
2018-07-09T23:42:56.074Z,2.60
2018-07-09T23:48:00.578Z,2.60
2018-07-09T23:53:04.707Z,2.70
2018-07-09T23:58:36.318Z,2.30
